Time;durP1;ratioP1;P1;durP2;ratioP2;P2;SDS_P1;SDS_P2;PMS_P1;PMS_P2;Temp;Humidity;BMP_temperature;BMP_pressure;BME280_temperature;BME280_humidity;BME280_pressure;Samples;Min_cycle;Max_cycle;Signal;HPM_P1;HPM_P2
2022/08/08 00:01:43;;;;;;;6.20;4.18;;;16.00;99.90;;;;;;5046883;28;20514;-69
2022/08/08 00:04:23;;;;;;;5.72;4.18;;;16.00;99.90;;;;;;5046587;28;20052;-69
2022/08/08 00:06:56;;;;;;;5.28;4.10;;;16.00;99.90;;;;;;5030682;28;20048;-69
2022/08/08 00:09:35;;;;;;;7.95;4.50;;;15.90;99.90;;;;;;5030600;28;20068;-69
2022/08/08 00:12:05;;;;;;;5.18;3.80;;;15.80;99.90;;;;;;5030541;28;20049;-69
2022/08/08 00:14:49;;;;;;;6.78;4.00;;;15.70;99.90;;;;;;5045567;28;20500;-69
2022/08/08 00:17:22;;;;;;;7.05;4.15;;;15.60;99.90;;;;;;5069804;28;20032;-69
2022/08/08 00:20:00;;;;;;;5.68;3.65;;;15.50;99.90;;;;;;5069463;28;20455;-69
2022/08/08 00:22:40;;;;;;;4.70;3.58;;;15.40;99.90;;;;;;5069160;28;20041;-69
2022/08/08 00:25:14;;;;;;;4.75;3.78;;;15.40;99.90;;;;;;5069247;28;20049;-69
2022/08/08 00:27:41;;;;;;;5.57;3.92;;;15.20;99.90;;;;;;5069477;28;20064;-69
2022/08/08 00:30:10;;;;;;;5.68;3.90;;;15.10;99.90;;;;;;5069484;28;20447;-69
2022/08/08 00:32:48;;;;;;;7.38;3.75;;;15.20;99.90;;;;;;5072891;28;20040;-69
2022/08/08 00:35:26;;;;;;;5.32;3.65;;;15.30;99.90;;;;;;5073022;28;20048;-69
2022/08/08 00:38:06;;;;;;;4.95;3.75;;;15.20;99.90;;;;;;5071900;28;20085;-69
2022/08/08 00:40:50;;;;;;;5.22;3.42;;;15.20;99.90;;;;;;5071611;28;20064;-69
2022/08/08 00:43:45;;;;;;;4.97;3.90;;;15.30;99.90;;;;;;5071424;28;20123;-69
2022/08/08 00:46:49;;;;;;;4.78;3.53;;;15.30;99.90;;;;;;5073612;28;20040;-68
2022/08/08 00:49:27;;;;;;;4.47;3.42;;;15.40;99.90;;;;;;5073866;28;20037;-69
2022/08/08 00:52:19;;;;;;;5.38;3.83;;;15.40;99.90;;;;;;5072853;28;20117;-68
2022/08/08 00:55:19;;;;;;;5.95;4.03;;;15.40;99.90;;;;;;5072931;28;20051;-68
2022/08/08 00:58:09;;;;;;;6.13;4.63;;;15.40;99.90;;;;;;5072749;28;20047;-69
2022/08/08 01:00:59;;;;;;;4.72;3.97;;;15.30;99.90;;;;;;5071085;28;20046;-68
2022/08/08 01:03:56;;;;;;;8.65;4.07;;;15.30;99.90;;;;;;5071030;28;20508;-69
2022/08/08 01:06:46;;;;;;;6.22;4.15;;;15.20;99.90;;;;;;5078075;28;20037;-69
2022/08/08 01:09:40;;;;;;;5.97;4.35;;;15.10;99.90;;;;;;5075879;28;20682;-69
2022/08/08 01:12:35;;;;;;;5.40;4.20;;;15.10;99.90;;;;;;5071287;28;20040;-69
2022/08/08 01:15:34;;;;;;;9.60;4.38;;;15.10;99.90;;;;;;5070935;28;20258;-69
2022/08/08 01:18:04;;;;;;;8.77;5.05;;;15.00;99.90;;;;;;5071249;28;20040;-69
2022/08/08 01:21:14;;;;;;;7.47;4.70;;;15.00;99.90;;;;;;5070991;28;20093;-69
2022/08/08 01:24:23;;;;;;;6.28;4.25;;;15.00;99.90;;;;;;5071769;28;20098;-69
2022/08/08 01:27:07;;;;;;;7.75;5.15;;;15.00;99.90;;;;;;5072209;28;20067;-70
2022/08/08 01:29:52;;;;;;;6.03;4.07;;;14.90;99.90;;;;;;5072181;28;20048;-69
2022/08/08 01:33:05;;;;;;;7.35;3.92;;;14.90;99.90;;;;;;5071955;28;20052;-69
2022/08/08 01:36:00;;;;;;;9.05;3.92;;;14.90;99.90;;;;;;5071055;28;20397;-69
2022/08/08 01:38:53;;;;;;;7.70;4.30;;;14.70;99.90;;;;;;5072169;28;20096;-69
2022/08/08 01:41:41;;;;;;;7.75;4.38;;;14.80;99.90;;;;;;5070572;28;20123;-68
2022/08/08 01:44:09;;;;;;;5.38;4.20;;;14.90;99.90;;;;;;5067002;28;20049;-69
2022/08/08 01:46:45;;;;;;;4.10;3.60;;;14.90;99.90;;;;;;5070790;28;20147;-69
2022/08/08 01:49:34;;;;;;;5.85;4.63;;;14.90;99.90;;;;;;5072018;28;20043;-69
2022/08/08 01:52:24;;;;;;;6.38;4.50;;;14.80;99.90;;;;;;5071983;28;20468;-69
2022/08/08 01:55:01;;;;;;;5.50;4.55;;;14.70;99.90;;;;;;5070337;28;20404;-69
2022/08/08 01:58:11;;;;;;;5.70;4.05;;;14.70;99.90;;;;;;5071862;28;20509;-69
2022/08/08 02:00:46;;;;;;;6.80;3.97;;;14.80;99.90;;;;;;5058011;28;20448;-70
2022/08/08 02:03:22;;;;;;;5.43;4.63;;;14.70;99.90;;;;;;5070130;28;20150;-69
2022/08/08 02:06:12;;;;;;;10.75;4.70;;;14.70;99.90;;;;;;5072261;28;20132;-69
2022/08/08 02:09:00;;;;;;;5.63;4.53;;;14.60;99.90;;;;;;5072681;28;20493;-69
2022/08/08 02:11:43;;;;;;;5.78;4.38;;;14.50;99.90;;;;;;5071691;28;20048;-69
2022/08/08 02:14:21;;;;;;;6.13;4.50;;;14.40;99.90;;;;;;5069876;28;20473;-69
2022/08/08 02:17:07;;;;;;;6.28;4.13;;;14.50;99.90;;;;;;5075205;28;20036;-69
2022/08/08 02:19:44;;;;;;;4.68;3.88;;;14.50;99.90;;;;;;5077639;28;20041;-69
2022/08/08 02:22:30;;;;;;;5.88;4.60;;;14.40;99.90;;;;;;5070525;28;20560;-70
2022/08/08 02:25:19;;;;;;;5.32;4.53;;;14.40;99.90;;;;;;5070069;28;20083;-69
2022/08/08 02:28:03;;;;;;;6.28;4.60;;;14.30;99.90;;;;;;5071094;28;20055;-69
2022/08/08 02:30:43;;;;;;;5.15;4.00;;;14.30;99.90;;;;;;5069804;28;20045;-69
2022/08/08 02:33:36;;;;;;;4.95;4.00;;;14.30;99.90;;;;;;5069465;28;20040;-69
2022/08/08 02:36:30;;;;;;;7.80;3.88;;;14.30;99.90;;;;;;5069310;28;20072;-69
2022/08/08 02:39:05;;;;;;;5.90;4.68;;;14.10;99.90;;;;;;5069489;28;20048;-69
2022/08/08 02:41:57;;;;;;;4.65;3.92;;;14.10;99.90;;;;;;5070983;28;20498;-69
2022/08/08 02:44:53;;;;;;;6.55;4.20;;;14.10;99.90;;;;;;5068958;28;20040;-69
2022/08/08 02:47:43;;;;;;;7.95;4.78;;;14.10;99.90;;;;;;5069571;28;20044;-69
2022/08/08 02:50:23;;;;;;;4.38;3.97;;;14.20;99.90;;;;;;5070737;28;20180;-70
2022/08/08 02:53:16;;;;;;;4.40;3.63;;;14.20;99.90;;;;;;5070216;28;20043;-70
2022/08/08 02:56:14;;;;;;;5.47;4.20;;;14.20;99.90;;;;;;5070469;28;20045;-70
2022/08/08 02:59:17;;;;;;;5.45;4.00;;;14.20;99.90;;;;;;5070507;28;20036;-70
2022/08/08 03:02:07;;;;;;;4.53;4.13;;;14.20;99.90;;;;;;5070456;28;20048;-70
2022/08/08 03:04:56;;;;;;;4.28;3.53;;;14.20;99.90;;;;;;5069986;28;20531;-69
2022/08/08 03:07:45;;;;;;;4.95;4.32;;;14.20;99.90;;;;;;5070386;28;20416;-70
2022/08/08 03:10:25;;;;;;;6.05;4.07;;;14.20;99.90;;;;;;5070359;28;20127;-69
2022/08/08 03:13:21;;;;;;;5.53;4.03;;;14.20;99.90;;;;;;5069874;28;20428;-69
2022/08/08 03:16:06;;;;;;;7.00;4.05;;;14.20;99.90;;;;;;5070069;28;20049;-69
2022/08/08 03:18:36;;;;;;;4.20;3.78;;;14.20;99.90;;;;;;5070039;28;20047;-70
2022/08/08 03:21:01;;;;;;;3.60;3.30;;;14.10;99.90;;;;;;5068432;28;20413;-70
2022/08/08 03:23:29;;;;;;;3.60;3.17;;;14.00;99.90;;;;;;5069851;28;20036;-69
2022/08/08 03:25:56;;;;;;;4.38;3.33;;;14.00;99.90;;;;;;5074681;28;20055;-69
2022/08/08 03:28:41;;;;;;;3.45;3.15;;;14.10;99.90;;;;;;5078137;28;20048;-70
2022/08/08 03:33:52;;;;;;;8.27;4.20;;;14.00;99.90;;;;;;5070375;28;20049;-70
2022/08/08 03:36:18;;;;;;;5.43;4.53;;;14.10;99.90;;;;;;5070158;28;20071;-70
2022/08/08 03:38:49;;;;;;;7.72;4.57;;;14.00;99.90;;;;;;5070016;28;20075;-70
2022/08/08 03:41:14;;;;;;;6.97;4.22;;;14.00;99.90;;;;;;5068693;28;20044;-69
2022/08/08 03:43:40;;;;;;;7.20;4.70;;;13.90;99.90;;;;;;5069409;28;20561;-70
2022/08/08 03:46:06;;;;;;;6.13;4.55;;;13.80;99.90;;;;;;5068480;28;20040;-70
2022/08/08 03:48:32;;;;;;;7.32;4.28;;;13.90;99.90;;;;;;5068414;28;20044;-70
2022/08/08 03:50:57;;;;;;;6.70;4.50;;;13.90;99.90;;;;;;5068452;28;20157;-70
2022/08/08 03:53:24;;;;;;;5.40;4.07;;;14.00;99.90;;;;;;5068788;28;20052;-70
2022/08/08 03:55:50;;;;;;;6.85;4.75;;;13.90;99.90;;;;;;5049606;28;20052;-70
2022/08/08 03:58:21;;;;;;;6.45;4.00;;;13.70;99.90;;;;;;5065538;28;20141;-70
2022/08/08 04:00:53;;;;;;;5.63;4.55;;;13.70;99.90;;;;;;5049287;28;20043;-70
2022/08/08 04:03:19;;;;;;;4.22;3.78;;;13.70;99.90;;;;;;5066766;28;20040;-70
2022/08/08 04:05:46;;;;;;;4.13;3.70;;;13.80;99.90;;;;;;5070634;28;20044;-70
2022/08/08 04:08:17;;;;;;;6.93;4.07;;;13.70;99.90;;;;;;5073186;28;20465;-70
2022/08/08 04:10:49;;;;;;;6.35;4.20;;;13.60;99.90;;;;;;5073058;28;20056;-70
2022/08/08 04:13:16;;;;;;;5.32;4.50;;;13.60;99.90;;;;;;5071726;28;20040;-70
2022/08/08 04:15:43;;;;;;;5.28;4.13;;;13.70;99.90;;;;;;5073818;28;20055;-70
2022/08/08 04:18:08;;;;;;;7.60;4.50;;;13.70;99.90;;;;;;5073869;28;20044;-70
2022/08/08 04:20:34;;;;;;;8.07;4.43;;;13.70;99.90;;;;;;5072316;28;20452;-70
2022/08/08 04:23:00;;;;;;;4.47;3.95;;;13.70;99.90;;;;;;5073451;28;20106;-70
2022/08/08 04:25:25;;;;;;;5.38;4.35;;;13.70;99.90;;;;;;5073670;28;20044;-70
2022/08/08 04:27:51;;;;;;;6.00;3.92;;;13.70;99.90;;;;;;5072044;28;20518;-70
2022/08/08 04:30:17;;;;;;;5.00;4.13;;;13.80;99.90;;;;;;5072345;28;20395;-70
2022/08/08 04:32:42;;;;;;;7.95;5.07;;;13.70;99.90;;;;;;5055363;28;20119;-70
2022/08/08 04:35:08;;;;;;;10.57;4.88;;;13.80;99.90;;;;;;5073368;28;20040;-69
2022/08/08 04:37:34;;;;;;;6.57;5.13;;;13.80;99.90;;;;;;5062001;28;20075;-69
2022/08/08 04:40:02;;;;;;;6.70;5.07;;;13.80;99.90;;;;;;5074141;28;20036;-69
2022/08/08 04:42:30;;;;;;;5.28;4.63;;;13.70;99.90;;;;;;5072724;28;20045;-69
2022/08/08 04:44:56;;;;;;;7.53;5.20;;;13.70;99.90;;;;;;5073101;28;20045;-69
2022/08/08 04:47:22;;;;;;;5.35;4.40;;;13.80;99.90;;;;;;5072900;28;20041;-69
2022/08/08 04:49:48;;;;;;;6.15;4.97;;;13.80;99.90;;;;;;5072695;28;20127;-69
2022/08/08 04:52:13;;;;;;;5.72;4.68;;;13.80;99.90;;;;;;5072790;28;20040;-69
2022/08/08 04:54:39;;;;;;;5.38;4.63;;;13.90;99.90;;;;;;5074898;28;20055;-69
2022/08/08 04:57:04;;;;;;;5.85;5.25;;;13.80;99.90;;;;;;5072870;28;20047;-69
2022/08/08 04:59:30;;;;;;;8.68;4.90;;;13.90;99.90;;;;;;5072871;28;20079;-69
2022/08/08 05:01:55;;;;;;;7.18;4.55;;;14.00;99.90;;;;;;5072773;28;20206;-69
2022/08/08 05:04:21;;;;;;;6.90;5.00;;;14.00;99.90;;;;;;5070908;28;20139;-69
2022/08/08 05:06:47;;;;;;;5.05;4.38;;;14.10;99.90;;;;;;5072749;28;20037;-69
2022/08/08 05:09:13;;;;;;;9.13;5.75;;;14.10;99.90;;;;;;5072570;28;20068;-69
2022/08/08 05:11:39;;;;;;;6.68;5.50;;;14.20;99.90;;;;;;5070967;28;20041;-69
2022/08/08 05:14:04;;;;;;;6.88;5.57;;;14.30;99.90;;;;;;5072333;28;20072;-69
2022/08/08 05:16:31;;;;;;;9.82;5.88;;;14.40;99.90;;;;;;5072339;28;20699;-69
2022/08/08 05:18:57;;;;;;;6.95;5.47;;;14.40;99.90;;;;;;5072297;28;20043;-69
2022/08/08 05:21:23;;;;;;;6.63;5.78;;;14.50;99.90;;;;;;5072157;28;20119;-69
2022/08/08 05:23:49;;;;;;;7.38;5.25;;;14.50;99.90;;;;;;5072162;28;20093;-69
2022/08/08 05:26:14;;;;;;;5.68;5.00;;;14.70;99.90;;;;;;5072433;28;20040;-69
2022/08/08 05:28:41;;;;;;;9.23;5.70;;;14.80;99.90;;;;;;5072417;28;20048;-69
2022/08/08 05:31:07;;;;;;;6.15;5.28;;;14.90;99.90;;;;;;5072360;28;20448;-69
2022/08/08 05:33:33;;;;;;;7.30;5.15;;;15.10;99.90;;;;;;5071779;28;20079;-69
2022/08/08 05:36:01;;;;;;;8.30;4.65;;;15.30;99.90;;;;;;5072450;28;20396;-69
2022/08/08 05:38:28;;;;;;;7.75;4.95;;;15.50;99.90;;;;;;5072284;28;20032;-69
2022/08/08 05:40:57;;;;;;;9.55;5.22;;;15.60;99.90;;;;;;5071052;28;20044;-69
2022/08/08 05:43:26;;;;;;;7.38;5.28;;;15.80;99.90;;;;;;5071696;28;20029;-69
2022/08/08 05:45:57;;;;;;;9.52;5.57;;;15.70;99.90;;;;;;5076308;28;20094;-69
2022/08/08 05:48:23;;;;;;;6.55;4.90;;;15.80;99.90;;;;;;5081005;28;20132;-69
2022/08/08 05:50:49;;;;;;;8.82;5.07;;;15.90;99.90;;;;;;5070915;28;20488;-69
2022/08/08 05:53:26;;;;;;;11.73;4.97;;;15.90;99.90;;;;;;5070256;28;20041;-69
2022/08/08 05:55:56;;;;;;;8.30;4.43;;;16.00;99.90;;;;;;5054229;28;20178;-69
2022/08/08 05:58:30;;;;;;;9.95;4.90;;;16.20;99.90;;;;;;5070492;28;20492;-69
2022/08/08 06:01:00;;;;;;;7.50;4.18;;;16.40;99.90;;;;;;5070340;28;20072;-70
2022/08/08 06:03:28;;;;;;;8.20;4.22;;;16.60;99.90;;;;;;5070064;28;20087;-70
2022/08/08 06:05:55;;;;;;;8.18;4.15;;;16.80;99.90;;;;;;5071731;28;20350;-70
2022/08/08 06:08:22;;;;;;;7.40;4.10;;;16.90;99.90;;;;;;5071516;28;20029;-70
2022/08/08 06:10:48;;;;;;;10.13;4.38;;;17.00;99.90;;;;;;5071777;28;20041;-70
2022/08/08 06:13:15;;;;;;;8.40;4.68;;;17.10;99.90;;;;;;5073504;28;20119;-70
2022/08/08 06:15:45;;;;;;;5.72;3.95;;;17.20;99.90;;;;;;5072631;28;20081;-70
2022/08/08 06:18:11;;;;;;;11.23;4.22;;;17.40;99.90;;;;;;5071631;28;20159;-70
2022/08/08 06:20:37;;;;;;;7.32;3.75;;;17.50;99.90;;;;;;5071005;28;20466;-70
2022/08/08 06:23:03;;;;;;;6.53;3.72;;;17.60;99.90;;;;;;5070792;28;20059;-70
2022/08/08 06:25:30;;;;;;;11.75;3.70;;;17.50;99.90;;;;;;5069641;28;20374;-70
2022/08/08 06:27:59;;;;;;;8.18;3.40;;;17.80;99.90;;;;;;5069902;28;20049;-70
2022/08/08 06:30:26;;;;;;;7.22;3.17;;;18.00;99.90;;;;;;5070890;28;20044;-70
2022/08/08 06:32:56;;;;;;;5.25;3.28;;;18.20;99.90;;;;;;5070787;28;20052;-69
2022/08/08 06:35:23;;;;;;;4.55;3.13;;;18.30;99.90;;;;;;5070882;28;20521;-69
2022/08/08 06:37:58;;;;;;;7.97;3.33;;;18.30;99.90;;;;;;5071070;28;20037;-69
2022/08/08 06:40:27;;;;;;;5.70;2.97;;;18.30;99.90;;;;;;5053205;28;20041;-69
2022/08/08 06:43:09;;;;;;;9.95;3.72;;;18.20;99.90;;;;;;5070796;28;20070;-71
2022/08/08 06:45:37;;;;;;;7.78;3.22;;;18.20;99.90;;;;;;5070961;28;20036;-69
2022/08/08 06:48:03;;;;;;;6.38;3.10;;;18.30;99.90;;;;;;5070944;28;20125;-70
2022/08/08 06:50:31;;;;;;;7.03;2.97;;;18.40;99.90;;;;;;5069561;28;20471;-69
2022/08/08 06:53:02;;;;;;;7.15;2.78;;;18.40;99.90;;;;;;5070357;28;20115;-69
2022/08/08 06:55:29;;;;;;;8.27;2.80;;;18.60;99.90;;;;;;5072795;28;20048;-69
2022/08/08 06:57:55;;;;;;;6.47;2.50;;;18.70;99.90;;;;;;5076872;28;20048;-69
2022/08/08 07:00:21;;;;;;;9.52;2.78;;;18.70;99.90;;;;;;5072071;28;20107;-69
2022/08/08 07:02:53;;;;;;;7.70;3.03;;;18.70;99.90;;;;;;5068684;28;20086;-69
2022/08/08 07:05:23;;;;;;;3.65;2.58;;;18.70;99.90;;;;;;5070484;28;20059;-69
2022/08/08 07:07:51;;;;;;;7.07;2.65;;;18.80;99.90;;;;;;5069410;28;20083;-67
2022/08/08 07:10:20;;;;;;;7.53;3.08;;;18.80;99.90;;;;;;5070451;28;20102;-68
2022/08/08 07:12:52;;;;;;;7.13;2.88;;;18.80;99.90;;;;;;5069848;28;20060;-67
2022/08/08 07:15:25;;;;;;;9.90;2.45;;;18.80;99.90;;;;;;5070148;28;20483;-68
2022/08/08 07:17:51;;;;;;;5.93;2.53;;;18.80;99.90;;;;;;5070251;28;20135;-68
2022/08/08 07:20:18;;;;;;;6.78;2.80;;;18.90;99.90;;;;;;5068828;28;20040;-68
2022/08/08 07:23:02;;;;;;;7.47;2.40;;;18.90;99.90;;;;;;5069972;28;20047;-68
2022/08/08 07:25:33;;;;;;;7.05;2.75;;;19.10;99.90;;;;;;5069077;28;20051;-68
2022/08/08 07:28:18;;;;;;;10.32;2.80;;;19.10;99.90;;;;;;5068778;28;20484;-68
2022/08/08 07:30:45;;;;;;;8.00;2.63;;;19.10;99.90;;;;;;5066733;28;20036;-68
2022/08/08 07:33:11;;;;;;;10.35;2.38;;;19.00;99.90;;;;;;5076016;28;20051;-68
2022/08/08 07:35:40;;;;;;;7.32;2.33;;;19.00;99.90;;;;;;5075590;28;20045;-69
2022/08/08 07:38:09;;;;;;;7.00;2.47;;;19.10;99.90;;;;;;5070562;28;20112;-68
2022/08/08 07:40:36;;;;;;;4.40;1.85;;;19.10;99.90;;;;;;5067967;28;20524;-69
2022/08/08 07:43:03;;;;;;;7.32;2.20;;;19.10;99.90;;;;;;5069887;28;20335;-68
2022/08/08 07:45:30;;;;;;;4.97;2.10;;;19.10;99.90;;;;;;5070222;28;20526;-68
2022/08/08 07:47:57;;;;;;;5.57;2.30;;;19.10;99.90;;;;;;5068626;28;20044;-69
2022/08/08 07:50:24;;;;;;;7.47;1.63;;;19.20;99.90;;;;;;5051830;28;20049;-68
2022/08/08 07:52:54;;;;;;;7.15;2.00;;;19.10;99.90;;;;;;5067516;28;20763;-68
2022/08/08 07:55:25;;;;;;;6.75;2.33;;;19.00;99.90;;;;;;5059409;28;20056;-68
2022/08/08 07:57:54;;;;;;;6.88;1.85;;;19.00;99.90;;;;;;5066885;28;20043;-68
2022/08/08 08:00:21;;;;;;;6.43;2.05;;;19.10;99.90;;;;;;5066544;28;20041;-71
2022/08/08 08:03:19;;;;;;;7.03;1.88;;;19.10;99.90;;;;;;5068464;28;20041;-70
2022/08/08 08:05:50;;;;;;;7.50;1.95;;;19.20;99.90;;;;;;5075711;28;20115;-70
2022/08/08 08:08:18;;;;;;;5.07;1.90;;;19.20;99.90;;;;;;5078737;28;20055;-70
2022/08/08 08:10:45;;;;;;;5.50;2.10;;;19.30;99.90;;;;;;5053556;28;20068;-71
2022/08/08 08:13:29;;;;;;;7.55;1.90;;;19.30;99.90;;;;;;5049771;28;20128;-73
2022/08/08 08:16:06;;;;;;;6.97;2.00;;;19.40;99.90;;;;;;5049973;28;20048;-72
2022/08/08 08:18:39;;;;;;;6.20;1.80;;;19.50;99.90;;;;;;5048802;28;20450;-72
2022/08/08 08:21:05;;;;;;;10.10;1.85;;;19.40;99.90;;;;;;5050081;28;20464;-72
2022/08/08 08:23:31;;;;;;;7.18;1.98;;;19.50;99.90;;;;;;5031988;28;20465;-72
2022/08/08 08:25:57;;;;;;;8.32;1.88;;;19.60;99.90;;;;;;5048457;28;20083;-72
2022/08/08 08:28:23;;;;;;;9.23;2.17;;;19.70;99.90;;;;;;5048390;28;20111;-72
2022/08/08 08:30:49;;;;;;;4.82;1.50;;;19.80;99.90;;;;;;5031753;28;20046;-72
2022/08/08 08:33:14;;;;;;;7.10;1.98;;;20.00;99.90;;;;;;5048125;28;20128;-72
2022/08/08 08:35:40;;;;;;;5.95;1.80;;;20.10;99.90;;;;;;5048153;28;20041;-72
2022/08/08 08:38:05;;;;;;;8.20;1.92;;;19.90;99.90;;;;;;5048288;28;20072;-73
2022/08/08 08:40:31;;;;;;;7.32;1.83;;;19.90;99.90;;;;;;5049195;28;20033;-72
2022/08/08 08:42:58;;;;;;;7.25;1.55;;;20.00;99.90;;;;;;5048948;28;20048;-73
2022/08/08 08:45:25;;;;;;;6.63;1.52;;;20.10;99.90;;;;;;5048150;28;20434;-72
2022/08/08 08:47:52;;;;;;;5.47;1.83;;;20.00;99.90;;;;;;5054747;28;20047;-72
2022/08/08 08:50:18;;;;;;;5.43;1.65;;;20.20;99.90;;;;;;5049309;28;20048;-72
2022/08/08 08:52:45;;;;;;;4.40;1.75;;;20.30;99.90;;;;;;5047536;28;20043;-73
2022/08/08 08:55:14;;;;;;;5.72;1.65;;;20.50;99.90;;;;;;5071189;28;20109;-72
2022/08/08 08:57:43;;;;;;;7.28;1.60;;;20.50;99.90;;;;;;5054369;28;20041;-72
2022/08/08 09:00:10;;;;;;;4.53;1.55;;;20.60;99.90;;;;;;5053558;28;20439;-72
2022/08/08 09:02:37;;;;;;;8.57;1.60;;;20.60;99.90;;;;;;5051126;28;20032;-72
2022/08/08 09:05:08;;;;;;;4.57;1.45;;;20.50;99.90;;;;;;5051729;28;20077;-72
2022/08/08 09:07:35;;;;;;;6.45;1.70;;;20.60;99.90;;;;;;5051364;28;20532;-72
2022/08/08 09:10:01;;;;;;;4.85;2.03;;;20.50;99.90;;;;;;5052624;28;20041;-72
2022/08/08 09:12:28;;;;;;;2.58;1.60;;;20.60;99.90;;;;;;5051040;28;20539;-72
2022/08/08 09:14:56;;;;;;;8.50;1.55;;;20.80;99.90;;;;;;5058603;28;20045;-72
2022/08/08 09:17:24;;;;;;;3.35;1.48;;;20.90;99.90;;;;;;5071770;28;20025;-72
2022/08/08 09:19:57;;;;;;;4.80;1.75;;;21.10;99.90;;;;;;5054586;28;20048;-72
2022/08/08 09:22:24;;;;;;;4.88;1.30;;;21.10;99.90;;;;;;5052145;28;20048;-72
2022/08/08 09:24:52;;;;;;;7.28;1.60;;;21.10;99.90;;;;;;5051234;28;20174;-72
2022/08/08 09:27:19;;;;;;;3.53;1.45;;;20.80;99.90;;;;;;5052390;28;20107;-72
2022/08/08 09:29:51;;;;;;;3.40;1.45;;;20.70;99.90;;;;;;5052730;28;20047;-71
2022/08/08 09:32:40;;;;;;;9.65;1.75;;;20.70;99.90;;;;;;5050619;28;20037;-72
2022/08/08 09:35:11;;;;;;;4.40;1.30;;;20.80;99.90;;;;;;5050894;28;20132;-72
2022/08/08 09:37:55;;;;;;;3.77;1.27;;;20.90;99.90;;;;;;5052752;28;20037;-73
2022/08/08 09:40:25;;;;;;;4.95;1.38;;;21.00;99.90;;;;;;5052495;28;20264;-72
2022/08/08 09:43:08;;;;;;;3.83;1.50;;;21.20;99.90;;;;;;5051225;28;20540;-72
2022/08/08 09:45:45;;;;;;;6.30;1.50;;;21.10;99.90;;;;;;5051199;28;20065;-72
2022/08/08 09:48:11;;;;;;;4.35;1.48;;;21.40;99.90;;;;;;5052530;28;20126;-73
2022/08/08 09:50:38;;;;;;;7.38;1.15;;;21.50;99.90;;;;;;5052405;28;20190;-73
2022/08/08 09:53:05;;;;;;;3.42;1.40;;;21.60;99.90;;;;;;5052141;28;20090;-72
2022/08/08 09:55:30;;;;;;;4.72;1.50;;;21.40;99.90;;;;;;5052187;28;20063;-72
2022/08/08 09:58:13;;;;;;;4.35;1.40;;;21.50;99.90;;;;;;5052007;28;20045;-72
2022/08/08 10:00:40;;;;;;;7.38;1.30;;;21.50;99.90;;;;;;5050843;28;20037;-72
2022/08/08 10:03:06;;;;;;;5.95;1.40;;;21.40;99.90;;;;;;5050751;28;20041;-72
2022/08/08 10:05:36;;;;;;;5.10;1.33;;;21.40;99.90;;;;;;5050261;28;20119;-72
2022/08/08 10:08:03;;;;;;;3.10;1.20;;;21.30;99.90;;;;;;5050318;28;20175;-72
2022/08/08 10:10:37;;;;;;;4.82;1.17;;;21.30;99.90;;;;;;5049742;28;20051;-72
2022/08/08 10:13:30;;;;;;;3.50;1.40;;;21.30;99.90;;;;;;5064143;28;20055;-72
2022/08/08 10:15:59;;;;;;;3.17;1.20;;;21.10;99.90;;;;;;5047305;28;20045;-72
2022/08/08 10:18:33;;;;;;;5.70;1.63;;;21.00;99.90;;;;;;5035118;28;20052;-72
2022/08/08 10:21:10;;;;;;;3.03;1.05;;;21.00;99.90;;;;;;5052757;28;20501;-71
2022/08/08 10:23:47;;;;;;;3.72;1.40;;;21.00;99.90;;;;;;5054623;28;20071;-73
2022/08/08 10:26:19;;;;;;;7.65;1.40;;;21.00;99.90;;;;;;5072401;28;20445;-71
2022/08/08 10:29:01;;;;;;;5.78;1.52;;;21.00;99.90;;;;;;5076402;28;20072;-71
2022/08/08 10:34:16;;;;;;;2.40;1.27;;;21.30;99.90;;;;;;5069638;28;20044;-72
2022/08/08 10:36:43;;;;;;;3.55;1.20;;;21.20;99.90;;;;;;5066956;28;20597;-71
2022/08/08 10:39:16;;;;;;;2.88;1.30;;;21.40;99.90;;;;;;5062572;28;20410;-71
2022/08/08 10:41:44;;;;;;;2.30;1.25;;;21.30;99.90;;;;;;5061013;28;20358;-72
2022/08/08 10:44:11;;;;;;;3.80;1.15;;;21.30;99.90;;;;;;5061131;28;20044;-71
2022/08/08 10:46:37;;;;;;;1.45;1.02;;;21.30;99.90;;;;;;5058359;28;20041;-72
2022/08/08 10:49:02;;;;;;;2.72;1.00;;;21.30;99.90;;;;;;5061622;28;20131;-72
2022/08/08 10:51:34;;;;;;;5.85;1.27;;;21.40;99.90;;;;;;5059220;28;20417;-72
2022/08/08 10:54:00;;;;;;;3.90;1.35;;;21.60;99.90;;;;;;5058990;28;20114;-72
2022/08/08 10:56:31;;;;;;;4.55;1.23;;;21.60;99.90;;;;;;5061262;28;20489;-71
2022/08/08 10:58:57;;;;;;;1.88;0.80;;;21.50;99.90;;;;;;5058249;28;20402;-71
2022/08/08 11:01:28;;;;;;;4.63;0.80;;;21.60;99.90;;;;;;5057647;28;20072;-71
2022/08/08 11:03:57;;;;;;;2.80;1.05;;;21.60;99.90;;;;;;5039187;28;20044;-72
2022/08/08 11:06:27;;;;;;;2.03;0.95;;;21.60;99.90;;;;;;5060773;28;20040;-71
2022/08/08 11:09:03;;;;;;;2.60;1.00;;;21.60;99.90;;;;;;5061348;28;20124;-72
2022/08/08 11:11:43;;;;;;;3.35;1.10;;;21.40;99.90;;;;;;5055414;28;20106;-72
2022/08/08 11:14:11;;;;;;;3.80;1.20;;;21.50;99.90;;;;;;5055174;28;20488;-71
2022/08/08 11:16:41;;;;;;;2.05;0.82;;;21.60;99.90;;;;;;5052070;28;20136;-71
2022/08/08 11:19:07;;;;;;;3.15;1.10;;;21.40;99.90;;;;;;5048824;28;20659;-71
2022/08/08 11:21:35;;;;;;;2.38;1.00;;;21.40;99.90;;;;;;5048209;28;20135;-71
2022/08/08 11:24:03;;;;;;;4.78;1.10;;;21.50;99.90;;;;;;5048038;28;20084;-71
2022/08/08 11:26:30;;;;;;;4.18;1.30;;;21.60;99.90;;;;;;5049622;28;20037;-71
2022/08/08 11:29:02;;;;;;;3.78;1.30;;;21.80;99.90;;;;;;5048061;28;20053;-71
2022/08/08 11:31:35;;;;;;;1.52;1.00;;;21.90;99.90;;;;;;5048543;28;20142;-71
2022/08/08 11:34:03;;;;;;;2.08;0.80;;;21.70;99.90;;;;;;5062198;28;20052;-71
2022/08/08 11:36:31;;;;;;;5.60;1.02;;;21.70;99.90;;;;;;5060535;28;20512;-72
2022/08/08 11:38:56;;;;;;;2.25;1.08;;;21.80;99.90;;;;;;5059350;28;20037;-73
2022/08/08 11:41:27;;;;;;;7.47;1.13;;;21.70;99.90;;;;;;5052729;28;20041;-72
2022/08/08 11:43:53;;;;;;;3.75;0.82;;;21.70;99.90;;;;;;5049792;28;20037;-72
2022/08/08 11:46:22;;;;;;;3.75;1.00;;;21.80;99.90;;;;;;5049951;28;20047;-73
2022/08/08 11:48:49;;;;;;;2.72;1.00;;;21.90;99.90;;;;;;5049857;28;20564;-73
2022/08/08 11:51:20;;;;;;;4.15;0.90;;;21.90;99.90;;;;;;5048722;28;20045;-72
2022/08/08 11:53:47;;;;;;;2.22;0.90;;;22.00;99.90;;;;;;5049561;28;20037;-71
2022/08/08 11:56:22;;;;;;;3.03;1.02;;;21.90;99.90;;;;;;5050072;28;20036;-72
2022/08/08 11:58:49;;;;;;;3.53;1.00;;;22.00;99.90;;;;;;5048533;28;20041;-72
2022/08/08 12:01:16;;;;;;;1.88;0.77;;;22.00;99.90;;;;;;5049861;28;20059;-69
2022/08/08 12:03:47;;;;;;;2.67;0.95;;;22.10;99.90;;;;;;5049501;28;20469;-69
2022/08/08 12:06:14;;;;;;;2.90;1.00;;;22.00;99.90;;;;;;5048290;28;20045;-69
2022/08/08 12:08:40;;;;;;;3.63;1.00;;;22.10;99.90;;;;;;5049658;28;20079;-69
2022/08/08 12:11:17;;;;;;;2.90;1.08;;;22.30;99.90;;;;;;5054737;28;20065;-69
2022/08/08 12:13:44;;;;;;;5.05;1.08;;;22.30;99.90;;;;;;5041596;28;20052;-69
2022/08/08 12:16:12;;;;;;;4.25;1.02;;;22.20;99.90;;;;;;5068375;28;20071;-69
2022/08/08 12:18:46;;;;;;;1.60;0.98;;;22.10;99.90;;;;;;5068223;28;20393;-69
2022/08/08 12:21:27;;;;;;;4.68;1.10;;;22.00;99.90;;;;;;5069412;28;20041;-69
2022/08/08 12:24:11;;;;;;;5.22;1.30;;;22.00;99.90;;;;;;5068259;28;20087;-69
2022/08/08 12:26:45;;;;;;;3.17;1.20;;;21.90;99.90;;;;;;5068914;28;20102;-69
2022/08/08 12:29:33;;;;;;;4.43;1.00;;;21.80;99.90;;;;;;5073411;28;20072;-69
2022/08/08 12:32:07;;;;;;;3.50;1.00;;;21.80;99.90;;;;;;5072110;28;20119;-69
2022/08/08 12:34:34;;;;;;;2.42;0.98;;;21.90;99.90;;;;;;5072923;28;20521;-69
2022/08/08 12:37:04;;;;;;;2.33;0.90;;;21.80;99.90;;;;;;5073579;28;20107;-70
2022/08/08 12:39:30;;;;;;;7.30;1.20;;;21.80;99.90;;;;;;5073257;28;20036;-69
2022/08/08 12:41:59;;;;;;;1.88;0.98;;;21.80;99.90;;;;;;5074814;28;20039;-69
2022/08/08 12:44:27;;;;;;;1.88;1.00;;;21.90;99.90;;;;;;5077513;28;20077;-69
2022/08/08 12:46:57;;;;;;;1.58;0.82;;;21.90;99.90;;;;;;5075277;28;20093;-69
2022/08/08 12:49:31;;;;;;;2.42;0.90;;;22.00;99.90;;;;;;5062227;28;20040;-69
2022/08/08 12:51:57;;;;;;;2.28;0.93;;;22.00;99.90;;;;;;5066677;28;20029;-69
2022/08/08 12:54:25;;;;;;;9.65;1.38;;;22.00;99.90;;;;;;5072969;28;20033;-69
2022/08/08 12:56:52;;;;;;;1.67;1.00;;;22.00;99.90;;;;;;5069773;28;20067;-69
2022/08/08 12:59:17;;;;;;;1.98;0.85;;;22.00;99.90;;;;;;5063192;28;20032;-69
2022/08/08 13:01:51;;;;;;;1.65;0.90;;;22.00;99.90;;;;;;5060127;28;20051;-69
2022/08/08 13:04:19;;;;;;;1.95;1.00;;;22.00;99.90;;;;;;5060008;28;20041;-69
2022/08/08 13:06:56;;;;;;;2.65;0.90;;;22.00;99.90;;;;;;5059155;28;20080;-69
2022/08/08 13:09:33;;;;;;;3.30;1.00;;;22.20;99.90;;;;;;5059834;28;21318;-69
2022/08/08 13:11:59;;;;;;;4.18;0.98;;;22.30;99.90;;;;;;5060993;28;20098;-70
2022/08/08 13:14:39;;;;;;;4.60;1.00;;;22.20;99.90;;;;;;5060674;28;20045;-69
2022/08/08 13:17:05;;;;;;;4.55;1.00;;;22.20;99.90;;;;;;5059378;28;20451;-69
2022/08/08 13:19:31;;;;;;;3.10;1.25;;;22.10;99.90;;;;;;5055413;28;20533;-69
2022/08/08 13:21:57;;;;;;;1.40;0.98;;;22.20;99.90;;;;;;5052689;28;20037;-69